PWSweather.com
Personal Weather Stations
Station Observations

AwhituWaiuku, CA 268400

Lat: -37.058, Lon: -174.6346

Elevation: 250

Station Type: Personal

http://www.weather-display.com/windy/gb/grahamsbeach.htm

High Low Average
Temperature 51.3°F10.7°C 42.7°F5.9°C 46.4°F8.0°C
Dew Point 50.5°F10.3°C 39.4°F4.1°C 44.3°F6.8°C
Winds 3.0 mph 4.8 kmh Calm Calm 1.0 mph S1.6 kmh S
Wind Gusts 3.0 mph4.8 kmh -- 1.0 mph1.6 kmh
Humidity 97% 88% 92%
Pressure 30.26 in1024.7 mb 30.20 in1022.7 mb -
Precipitation 0.02 in0.5 mm - -
Hour Temp Dew Point Humidity Winds Wind Gusts Pressure Precip Precip Rate Daily Precip Total
12:00 AM 42.7°F5.9°C 39.4°F4.1°C 88% Calm Calm -- 30.20 in1022.7 mb 0.00 in0.0 mm 0.00 in0.0 mm 0.00 in0.0 mm
01:00 AM 45.5°F7.5°C 42.8°F6.0°C 90% Calm Calm -- 30.20 in1022.7 mb 0.00 in0.0 mm 0.00 in0.0 mm 0.00 in0.0 mm
02:00 AM 46.4°F8.0°C 43.6°F6.4°C 90% 1.0 mph SW1.6 kmh SW 2.0 mph3.2 kmh 30.20 in1022.7 mb 0.00 in0.0 mm 0.00 in0.0 mm 0.00 in0.0 mm
03:00 AM 45.8°F7.7°C 42.7°F5.9°C 89% Calm Calm -- 30.20 in1022.7 mb 0.00 in0.0 mm 0.00 in0.0 mm 0.00 in0.0 mm
04:00 AM 45.7°F7.6°C 42.6°F5.9°C 89% Calm Calm -- 30.20 in1022.7 mb 0.00 in0.0 mm 0.00 in0.0 mm 0.00 in0.0 mm
05:00 AM 46.4°F8.0°C 43.9°F6.6°C 91% 1.0 mph WSW1.6 kmh WSW 1.0 mph1.6 kmh 30.20 in1022.7 mb 0.00 in0.0 mm 0.00 in0.0 mm 0.00 in0.0 mm
06:00 AM 46.4°F8.0°C 44.5°F6.9°C 93% Calm Calm -- 30.21 in1023.0 mb 0.01 in0.3 mm 0.00 in0.0 mm 0.01 in0.3 mm
07:00 AM 45.5°F7.5°C 43.9°F6.6°C 94% 2.0 mph W3.2 kmh W 3.0 mph4.8 kmh 30.22 in1023.4 mb 0.00 in0.0 mm 0.00 in0.0 mm 0.01 in0.3 mm
08:00 AM 44.6°F7.0°C 43.2°F6.2°C 95% Calm Calm -- 30.24 in1024.0 mb - 0.01 in0.3 mm 0.02 in0.5 mm
09:00 AM 46.1°F7.8°C 45.0°F7.2°C 96% 2.0 mph NNE3.2 kmh NNE 2.0 mph3.2 kmh 30.25 in1024.4 mb - 0.00 in0.0 mm 0.02 in0.5 mm
10:00 AM 50.1°F10.1°C 49.3°F9.6°C 97% 3.0 mph NNE4.8 kmh NNE 3.0 mph4.8 kmh 30.25 in1024.4 mb - 0.00 in0.0 mm 0.02 in0.5 mm
11:00 AM 51.3°F10.7°C 50.5°F10.3°C 97% Calm Calm -- 30.26 in1024.7 mb 0.00 in0.0 mm 0.00 in0.0 mm 0.02 in0.5 mm
12:00 PM 50.2°F10.1°C 49.4°F9.7°C 97% 3.0 mph W4.8 kmh W 3.0 mph4.8 kmh 30.25 in1024.4 mb 0.05 in1.3 mm 0.00 in0.0 mm 0.05 in1.3 mm
01:00 PM 50.2°F10.1°C 49.4°F9.7°C 97% Calm Calm -- 30.22 in1023.4 mb 0.00 in0.0 mm 0.00 in0.0 mm 0.05 in1.3 mm
02:00 PM 58.0°F14.4°C 45.5°F7.5°C 63% 6.0 mph WSW9.7 kmh WSW 9.0 mph14.5 kmh 30.22 in1023.4 mb - 0.00 in0.0 mm 0.05 in1.3 mm
03:00 PM 54.6°F12.6°C 45.0°F7.2°C 70% 9.0 mph W14.5 kmh W 9.0 mph14.5 kmh 30.22 in1023.4 mb - 0.00 in0.0 mm 0.05 in1.3 mm
04:00 PM 51.2°F10.7°C 45.2°F7.3°C 80% 9.0 mph W14.5 kmh W 13.0 mph20.9 kmh 30.22 in1023.4 mb - 0.00 in0.0 mm 0.05 in1.3 mm
05:00 PM 50.0°F10.0°C 44.1°F6.7°C 80% 2.0 mph WSW3.2 kmh WSW 3.0 mph4.8 kmh 30.23 in1023.7 mb - 0.00 in0.0 mm 0.05 in1.3 mm
06:00 PM 49.6°F9.8°C 43.7°F6.5°C 80% 6.0 mph SW9.7 kmh SW 7.0 mph11.3 kmh 30.25 in1024.4 mb 0.00 in0.0 mm 0.00 in0.0 mm 0.05 in1.3 mm
07:00 PM 48.5°F9.2°C 43.2°F6.2°C 82% 3.0 mph SW4.8 kmh SW 6.0 mph9.7 kmh 30.27 in1025.1 mb 0.00 in0.0 mm 0.00 in0.0 mm 0.05 in1.3 mm
08:00 PM 47.8°F8.8°C 43.5°F6.4°C 85% Calm Calm -- 30.28 in1025.4 mb 0.00 in0.0 mm 0.00 in0.0 mm 0.05 in1.3 mm
09:00 PM 47.8°F8.8°C 43.8°F6.6°C 86% Calm Calm -- 30.29 in1025.7 mb 0.00 in0.0 mm 0.00 in0.0 mm 0.05 in1.3 mm
10:00 PM 47.2°F8.4°C 43.9°F6.6°C 88% Calm Calm -- 30.30 in1026.1 mb 0.00 in0.0 mm 0.00 in0.0 mm 0.05 in1.3 mm
11:00 PM 47.0°F8.3°C 43.9°F6.6°C 89% Calm Calm -- 30.30 in1026.1 mb 0.00 in0.0 mm 0.00 in0.0 mm 0.05 in1.3 mm